KEEN/EEN METAR and TAF weather

Enter ICAO airport designator
Station Type Date Time Source
KEEN METAR 2019/12/13 00:56 UTC NOAA

KEEN 130056Z AUTO 20004KT 10SM CLR M06/M09 A3065 RMK AO2 SLP393 T10611089 FZRANO $


Station Type Date Time Source
KEEN Decoded METAR 2019/12/13 00:56 UTC NOAA

Keene, Dillant-Hopkins Airport, NH, United States (KEEN) 42-54N 072-16W
Dec 12, 2019 - 07:56 PM EST / 2019.12.13 0056 UTC
Wind: from the SSW (200 degrees) at 5 MPH (4 KT):0
Visibility: 10 mile(s):0
Sky conditions: clear
Temperature: 21.0 F (-6.1 C)
Windchill: 14 F (-10 C):1
Dew Point: 16.0 F (-8.9 C)
Relative Humidity: 80%
Pressure (altimeter): 30.65 in. Hg (1037 hPa)
ob: KEEN 130056Z AUTO 20004KT 10SM CLR M06/M09 A3065 RMK AO2 SLP393 T10611089 FZRANO
cycle: 1

Station Type Date Time Source
KEEN TAF UTC NOAA

Error!

Example: see airport list